• Join FlightAware (Why Join?)
  • Login
  • US Flag 
06:05PM EST


 

Airport Tracker/Info


-or-


 

Live Flight TrackerFlight Track Log ✈ N896P ✈ 13-Nov-2013 ✈ KFTW - KSHR

Flight Track Log - Related Links

Times and Time Zones

All times are in EST time to prevent confusion due to time zone crossing. See the N896P flight status page for this flight to view local times or setup timezone preferences in your user account.

Time Position Orientation Groundspeed Altitude Reporting Facility
EST Latitude Longitude Course Direction KTS MPH feet Rate Location/Type
09:17PM 32.7583 -97.3542 183° South 210 242 4,300  Level Fort Worth Center
09:18PM 32.7436 -97.4061 251° West 236 272 7,700 3,600 Climbing Fort Worth Center
09:19PM 32.7936 -97.4556 320° Northwest 221 254 11,600 3,480 Climbing Fort Worth Center
09:20PM 32.8439 -97.5050 320° Northwest 226 260 14,700 3,000 Climbing Fort Worth Center
09:21PM 32.9000 -97.5569 322° Northwest 256 295 17,700 2,520 Climbing Fort Worth Center
09:22PM 32.9564 -97.6114 321° Northwest 256 295 19,800 2,160 Climbing Fort Worth Center
09:23PM 33.0106 -97.6611 322° Northwest 256 295 22,100 2,280 Climbing Fort Worth Center
09:24PM 33.0689 -97.7133 323° Northwest 261 300 24,400 2,040 Climbing Fort Worth Center
09:25PM 33.1106 -97.7856 305° West 254 292 26,200 1,680 Climbing Fort Worth Center
09:26PM 33.1372 -97.8725 290° West 259 298 27,800 1,560 Climbing Fort Worth Center
09:27PM 33.1642 -97.9569 291° West 270 311 29,400 1,380 Climbing Fort Worth Center
09:28PM 33.1928 -98.0489 290° West 281 323 30,600 1,200 Climbing Fort Worth Center
09:29PM 33.2217 -98.1461 290° West 299 344 31,800 1,200 Climbing Fort Worth Center
09:30PM 33.2522 -98.2431 291° West 311 358 33,000 1,140 Climbing Fort Worth Center
09:31PM 33.2914 -98.3356 297° West 311 358 34,100 1,080 Climbing Fort Worth Center
09:32PM 33.3639 -98.3883 329° Northwest 301 346 35,200 960 Climbing Fort Worth Center
09:33PM 33.4511 -98.4442 332° Northwest 313 360 36,100 840 Climbing Fort Worth Center
09:34PM 33.5342 -98.4925 334° Northwest 318 366 36,900 600 Climbing Fort Worth Center
09:35PM 33.6131 -98.5483 329° Northwest 341 392 37,400 480 Climbing Fort Worth Center
09:36PM 33.6961 -98.6019 332° Northwest 341 392 37,900 480 Climbing Fort Worth Center
09:37PM 33.7811 -98.6556 332° Northwest 346 398 38,400 480 Climbing Fort Worth Center
09:38PM 33.8681 -98.7117 332° Northwest 346 398 38,900 480 Climbing Fort Worth Center
09:39PM 33.9572 -98.7656 333° Northwest 346 398 39,400 540 Climbing Fort Worth Center
09:40PM 34.0483 -98.8272 331° Northwest 341 392 40,000 300 Climbing Fort Worth Center
09:41PM 34.1250 -98.8861 328° Northwest 348 400 40,000  Level Fort Worth Center
09:42PM 34.2203 -98.9481 332° Northwest 364 419 40,000  Level Fort Worth Center
09:43PM 34.3133 -99.0075 332° Northwest 369 425 40,000  Level Fort Worth Center
09:44PM 34.4044 -99.0672 332° Northwest 374 430 40,000  Level Fort Worth Center
09:45PM 34.5017 -99.1244 334° Northwest 374 430 40,000  Level Fort Worth Center
09:46PM 34.5947 -99.1844 332° Northwest 374 430 40,000  Level Fort Worth Center
09:47PM 34.6878 -99.2469 331° Northwest 369 425 40,000  Level Fort Worth Center
09:48PM 34.7806 -99.3097 331° Northwest 374 430 40,000  Level Fort Worth Center
09:49PM 34.8736 -99.3725 331° Northwest 374 430 40,000  Level Fort Worth Center
09:50PM 34.9664 -99.4328 332° Northwest 374 430 40,000  Level Fort Worth Center
09:51PM 35.0592 -99.4958 331° Northwest 374 430 40,000  Level Fort Worth Center
09:52PM 35.1542 -99.5592 331° Northwest 374 430 40,000  Level Fort Worth Center
09:53PM 35.2469 -99.6253 330° Northwest 374 430 40,000  Level Fort Worth Center
09:55PM 35.4775 -99.7792 331° Northwest 388 447 40,000  Level Kansas City Center
09:56PM 35.5742 -99.8456 331° Northwest 391 450 40,000  Level Kansas City Center
09:57PM 35.6711 -99.9106 331° Northwest 393 452 40,000  Level Kansas City Center
09:58PM 35.7681 -99.9764 331° Northwest 394 453 40,000  Level Kansas City Center
09:59PM 35.8642 -100.0428 331° Northwest 393 452 40,000 240 Level Kansas City Center
10:00PM 35.9589 -100.1075 331° Northwest 390 449 40,500 480 Climbing Kansas City Center
10:01PM 36.0522 -100.1714 331° Northwest 386 444 41,000 240 Climbing Kansas City Center
10:02PM 36.1439 -100.2347 331° Northwest 380 437 41,000  Level Kansas City Center
10:03PM 36.2367 -100.2983 331° Northwest 378 435 41,000  Level Kansas City Center
10:04PM 36.3286 -100.3633 330° Northwest 378 435 41,000  Level Kansas City Center
10:05PM 36.4231 -100.4286 331° Northwest 383 441 41,000  Level Kansas City Center
10:06PM 36.5269 -100.5003 331° Northwest 385 443 41,000  Level Kansas City Center
10:07PM 36.6314 -100.5733 331° Northwest 385 443 41,000  Level Kansas City Center
10:08PM 36.7211 -100.6358 331° Northwest 385 443 41,000  Level Kansas City Center
10:09PM 36.8111 -100.6992 331° Northwest 387 445 41,000 180 Level Kansas City Center
10:10PM 36.9144 -100.7733 330° Northwest 383 441 41,400 300 Climbing Kansas City Center
10:11PM 37.0022 -100.8350 331° Northwest 379 436 41,700 240 Climbing Kansas City Center
10:12PM 37.1025 -100.9064 330° Northwest 373 429 42,000 240 Climbing Kansas City Center
10:13PM 37.1886 -100.9681 330° Northwest 371 427 42,300 240 Climbing Kansas City Center
10:14PM 37.2728 -101.0292 330° Northwest 366 421 42,600 240 Climbing Kansas City Center
10:15PM 37.3694 -101.0992 330° Northwest 359 413 42,900 180 Climbing Kansas City Center
10:16PM 37.4519 -101.1592 330° Northwest 356 410 43,000  Climbing Kansas City Center
10:17PM 37.5358 -101.2192 330° Northwest 357 411 43,000  Level Kansas City Center
10:18PM 37.6350 -101.2908 330° Northwest 363 418 43,000  Level Kansas City Center
10:19PM 37.7194 -101.3525 330° Northwest 365 420 43,000  Level Kansas City Center
10:20PM 37.8192 -101.4247 330° Northwest 367 422 43,000  Level Kansas City Center
10:22PM 37.9036 -101.4858 330° Northwest 365 420 43,000  Level Kansas City Center
10:23PM 37.9886 -101.5475 330° Northwest 367 422 43,000  Level Kansas City Center
10:24PM 38.0867 -101.6189 330° Northwest 364 419 43,000  Level Kansas City Center
10:25PM 38.1711 -101.6822 329° Northwest 367 422 43,000  Level Kansas City Center
10:26PM 38.2556 -101.7447 330° Northwest 366 421 43,000  Level Kansas City Center
10:27PM 38.3542 -101.8167 330° Northwest 366 421 43,000  Level Kansas City Center
10:28PM 38.4525 -101.8889 330° Northwest 366 421 43,000  Level Denver Center
10:29PM 38.5378 -101.9533 329° Northwest 370 426 43,000  Level Denver Center
10:30PM 38.6378 -102.0278 330° Northwest 372 428 43,000  Level Denver Center
10:31PM 38.7228 -102.0911 330° Northwest 369 425 43,000  Level Denver Center
10:32PM 38.8214 -102.1650 330° Northwest 369 425 43,000  Level Denver Center
10:33PM 38.9056 -102.2283 330° Northwest 368 423 43,000  Level Denver Center
10:34PM 38.9892 -102.2922 329° Northwest 366 421 43,000  Level Denver Center
10:35PM 39.0872 -102.3658 330° Northwest 364 419 43,000  Level Denver Center
10:36PM 39.1711 -102.4292 330° Northwest 364 419 43,000  Level Denver Center
10:37PM 39.2694 -102.5039 330° Northwest 366 421 43,000  Level Denver Center
10:38PM 39.3531 -102.5678 329° Northwest 365 420 43,000  Level Denver Center
10:39PM 39.4389 -102.6336 329° Northwest 366 421 43,000  Level Denver Center
10:40PM 39.5264 -102.7008 329° Northwest 366 421 43,000  Level Denver Center
10:41PM 39.6122 -102.7675 329° Northwest 363 418 43,000  Level Denver Center
10:42PM 39.7175 -102.8481 330° Northwest 366 421 43,000  Level Denver Center
10:43PM 39.8047 -102.9161 329° Northwest 367 422 43,000  Level Denver Center
10:44PM 39.8911 -102.9833 329° Northwest 363 418 43,000  Level Denver Center
10:45PM 39.9775 -103.0514 329° Northwest 364 419 43,000  Level Denver Center
10:46PM 40.0658 -103.1197 329° Northwest 368 423 43,000  Level Denver Center
10:47PM 40.1539 -103.1889 329° Northwest 371 427 43,000  Level Denver Center
10:48PM 40.2419 -103.2581 329° Northwest 370 426 43,000  Level Denver Center
10:49PM 40.3289 -103.3269 329° Northwest 367 422 43,000  Level Denver Center
10:50PM 40.4150 -103.3944 329° Northwest 364 419 43,000  Level Denver Center
10:51PM 40.5175 -103.4764 329° Northwest 361 415 43,000  Level Denver Center
10:52PM 40.6044 -103.5456 329° Northwest 365 420 43,000  Level Denver Center
10:53PM 40.6908 -103.6147 329° Northwest 365 420 43,000  Level Denver Center
10:54PM 40.7781 -103.6842 329° Northwest 367 422 43,000  Level Denver Center
10:55PM 40.8644 -103.7536 329° Northwest 365 420 43,000  Level Denver Center
10:56PM 40.9522 -103.8239 329° Northwest 370 426 43,000  Level Denver Center
10:57PM 41.0542 -103.9092 328° Northwest 376 433 43,000  Level Denver Center
10:58PM 41.1408 -103.9792 329° Northwest 380 437 43,000  Level Denver Center
10:59PM 41.2278 -104.0492 329° Northwest 382 440 43,000  Level Denver Center
11:00PM 41.3278 -104.1322 328° Northwest 380 437 43,000  Level Denver Center
11:01PM 41.4136 -104.2017 329° Northwest 378 435 43,000  Level Denver Center
11:03PM 41.5000 -104.2725 328° Northwest 378 435 43,000  Level Denver Center
11:04PM 41.5986 -104.3544 328° Northwest 374 430 43,000  Level Denver Center
11:05PM 41.6822 -104.4253 328° Northwest 372 428 43,000  Level Denver Center
11:06PM 41.7814 -104.5053 329° Northwest 372 428 43,000  Level Denver Center
11:07PM 41.8667 -104.5744 329° Northwest 373 429 43,000  Level Denver Center
11:08PM 41.9508 -104.6456 328° Northwest 373 429 43,000  Level Denver Center
11:09PM 42.0486 -104.7222 330° Northwest 364 419 43,000  Level Denver Center
11:10PM 42.1311 -104.7911 328° Northwest 363 418 43,000  Level Denver Center
11:11PM 42.2133 -104.8592 328° Northwest 362 417 43,000  Level Denver Center
11:12PM 42.3094 -104.9381 329° Northwest 359 413 43,000  Level Denver Center
11:13PM 42.3911 -105.0067 328° Northwest 359 413 43,000  Level Denver Center
11:14PM 42.4744 -105.0753 329° Northwest 363 418 43,000  Level Denver Center
11:15PM 42.5714 -105.1553 329° Northwest 364 419 43,000  Level Denver Center
11:16PM 42.6539 -105.2247 328° Northwest 363 418 43,000  Level Denver Center
11:17PM 42.7356 -105.2936 328° Northwest 361 415 43,000  Level Denver Center
11:18PM 42.8311 -105.3733 329° Northwest 360 414 43,000 -420 Level Denver Center
11:19PM 42.9147 -105.4433 328° Northwest 365 420 42,200 -1,260 Descending Denver Center
11:20PM 43.0136 -105.5275 328° Northwest 375 432 40,500 -1,560 Descending Denver Center
11:21PM 43.0975 -105.5972 329° Northwest 370 426 39,100 -1,500 Descending Denver Center
11:22PM 43.1811 -105.6686 328° Northwest 370 426 37,500 -1,920 Descending Denver Center
11:23PM 43.2797 -105.7542 328° Northwest 375 432 35,200 -2,100 Descending Denver Center
11:24PM 43.3672 -105.8286 328° Northwest 384 442 33,300 -1,920 Descending Denver Center
11:25PM 43.4581 -105.9072 328° Northwest 399 459 31,400 -2,100 Descending Denver Center
11:26PM 43.5592 -105.9936 328° Northwest 383 441 29,100 -2,100 Descending Denver Center
11:27PM 43.6403 -106.0647 328° Northwest 365 420 27,200 -2,040 Descending Denver Center
11:28PM 43.7336 -106.1464 328° Northwest 358 412 25,000 -2,040 Descending Denver Center
11:29PM 43.8186 -106.2200 328° Northwest 374 430 23,100 -1,920 Descending Denver Center
11:30PM 43.9006 -106.2881 329° Northwest 363 418 21,100 -2,100 Descending Denver Center
11:31PM 43.9897 -106.3681 327° Northwest 349 402 18,900 -1,980 Descending Denver Center
11:32PM 44.0600 -106.4283 328° Northwest 320 368 17,100 -1,440 Descending Denver Center
11:33PM 44.1244 -106.4886 326° Northwest 298 343 16,000 -1,020 Descending Denver Center
11:34PM 44.2200 -106.5731 328° Northwest 300 345 14,800 -1,140 Descending Salt Lake Center
11:35PM 44.2775 -106.6244 327° Northwest 304 350 13,700 -1,380 Descending Denver Center
11:36PM 44.3486 -106.6858 328° Northwest 303 349 12,400 -1,320 Descending Denver Center
11:37PM 44.4122 -106.7478 325° Northwest 293 337 11,100 -1,380 Descending Denver Center
11:38PM 44.4700 -106.7992 328° Northwest 267 307 9,600 -900 Descending Denver Center
11:39PM 44.5269 -106.8422 332° Northwest 263 303 9,300 -300 Descending Denver Center